createdAt,value
2023-03-17T00:00:20.022Z,39.03
2023-03-17T00:02:58.884Z,31.33
2023-03-17T00:05:35.638Z,33.60
2023-03-17T00:08:26.478Z,25.60
2023-03-17T00:10:59.206Z,28.35
2023-03-17T00:13:31.282Z,37.45
2023-03-17T00:16:08.260Z,25.23
2023-03-17T00:18:47.244Z,32.25
2023-03-17T00:23:58.319Z,36.60
2023-03-17T00:26:35.256Z,37.45
2023-03-17T00:29:06.695Z,44.17
2023-03-17T00:31:41.367Z,42.35
2023-03-17T00:34:23.670Z,35.28
2023-03-17T00:36:58.636Z,49.15
2023-03-17T00:39:33.126Z,50.20
2023-03-17T00:42:03.634Z,34.80
2023-03-17T00:44:33.215Z,33.15
2023-03-17T00:47:02.227Z,43.63
2023-03-17T00:49:32.811Z,40.20
2023-03-17T00:52:01.692Z,34.08
2023-03-17T00:54:30.121Z,31.98
2023-03-17T00:57:01.484Z,41.17
2023-03-17T00:59:32.529Z,29.38
2023-03-17T01:02:00.947Z,47.72
2023-03-17T01:06:59.705Z,32.35
2023-03-17T01:09:28.850Z,35.92
2023-03-17T01:11:59.899Z,33.80
2023-03-17T01:14:28.506Z,29.70
2023-03-17T01:16:56.832Z,40.47
2023-03-17T01:19:25.196Z,34.72
2023-03-17T01:24:23.195Z,43.97
2023-03-17T01:26:52.022Z,32.25
2023-03-17T01:29:20.441Z,42.60
2023-03-17T01:31:48.760Z,37.83
2023-03-17T01:36:45.212Z,32.45
2023-03-17T01:39:14.537Z,39.20
2023-03-17T01:41:45.673Z,31.00
2023-03-17T01:44:18.574Z,37.25
2023-03-17T01:46:47.566Z,33.60
2023-03-17T01:49:26.477Z,35.33
2023-03-17T01:52:09.363Z,35.03
2023-03-17T01:54:42.407Z,30.70
2023-03-17T01:57:20.262Z,40.75
2023-03-17T01:59:52.199Z,41.78
2023-03-17T02:02:25.852Z,37.20
2023-03-17T02:04:54.656Z,34.58
2023-03-17T02:07:26.794Z,27.42
2023-03-17T02:09:57.147Z,27.20
2023-03-17T02:12:30.405Z,28.10
2023-03-17T02:14:59.626Z,41.22
2023-03-17T02:17:29.856Z,30.15
2023-03-17T02:19:58.262Z,33.33
2023-03-17T02:22:28.625Z,46.50
2023-03-17T02:25:05.611Z,44.60
2023-03-17T02:27:41.619Z,34.10
2023-03-17T02:30:12.356Z,38.63
2023-03-17T02:32:40.699Z,34.97
2023-03-17T02:37:40.425Z,44.05
2023-03-17T02:40:11.375Z,40.10
2023-03-17T02:42:41.322Z,26.60
2023-03-17T02:45:12.518Z,36.97
2023-03-17T02:47:42.400Z,33.28
2023-03-17T02:50:20.232Z,40.75
2023-03-17T02:52:50.202Z,41.55
2023-03-17T02:55:18.892Z,32.30
2023-03-17T02:57:47.385Z,27.85
2023-03-17T03:07:41.081Z,29.15
2023-03-17T03:10:12.561Z,43.95
2023-03-17T03:12:40.977Z,27.00
2023-03-17T03:17:38.249Z,35.15
2023-03-17T03:22:35.073Z,41.97
2023-03-17T03:25:03.649Z,37.85
2023-03-17T03:27:33.369Z,41.83
2023-03-17T03:30:02.162Z,29.40
2023-03-17T03:32:30.429Z,37.38
2023-03-17T03:34:58.714Z,27.13
2023-03-17T03:37:27.475Z,42.55
2023-03-17T03:39:55.960Z,25.52
2023-03-17T03:42:24.362Z,34.65
2023-03-17T03:44:54.068Z,28.40
2023-03-17T03:47:22.430Z,28.92
2023-03-17T03:49:50.794Z,28.08
2023-03-17T03:54:47.342Z,28.02
2023-03-17T03:59:43.845Z,42.65
2023-03-17T04:04:42.287Z,29.58
2023-03-17T04:07:10.889Z,41.42
2023-03-17T04:12:08.728Z,30.92
2023-03-17T04:14:37.427Z,33.75
2023-03-17T04:17:05.923Z,35.63
2023-03-17T04:22:03.795Z,28.77
2023-03-17T04:24:32.287Z,29.50
2023-03-17T04:29:28.758Z,28.42
2023-03-17T04:39:23.788Z,24.30
2023-03-17T04:41:52.296Z,30.92
2023-03-17T04:44:20.765Z,31.75
2023-03-17T04:46:49.157Z,31.23
2023-03-17T04:51:45.884Z,28.25
2023-03-17T04:54:16.658Z,25.48
2023-03-17T04:56:45.140Z,31.08
2023-03-17T04:59:13.601Z,33.85
2023-03-17T05:01:42.107Z,34.08
2023-03-17T05:06:45.608Z,29.67
2023-03-17T05:09:15.416Z,29.67
2023-03-17T05:11:43.669Z,43.85
2023-03-17T05:14:11.901Z,31.30
2023-03-17T05:16:40.346Z,36.67
2023-03-17T05:19:08.963Z,31.90
2023-03-17T05:29:03.507Z,34.33
2023-03-17T05:34:00.194Z,33.13
2023-03-17T05:36:28.629Z,31.60
2023-03-17T05:38:57.086Z,30.45
2023-03-17T05:41:25.430Z,38.92
2023-03-17T05:43:55.110Z,39.88
2023-03-17T05:46:23.996Z,34.03
2023-03-17T05:48:52.532Z,38.70
2023-03-17T05:51:22.900Z,39.60
2023-03-17T05:53:51.690Z,32.67
2023-03-17T05:56:20.149Z,37.92
2023-03-17T05:58:48.478Z,32.47
2023-03-17T06:03:46.930Z,48.58
2023-03-17T06:06:15.775Z,29.05
2023-03-17T06:08:44.259Z,41.15
2023-03-17T06:11:13.244Z,26.65
2023-03-17T06:13:41.692Z,33.72
2023-03-17T06:16:10.198Z,27.33
2023-03-17T06:21:08.330Z,41.28
2023-03-17T06:23:37.028Z,25.25
2023-03-17T06:26:05.874Z,40.42
2023-03-17T06:28:34.380Z,29.60
2023-03-17T06:31:04.628Z,26.50
2023-03-17T06:33:34.660Z,31.85
2023-03-17T06:36:05.020Z,31.80
2023-03-17T06:38:33.519Z,27.27
2023-03-17T06:43:30.217Z,23.85
2023-03-17T06:45:58.610Z,42.13
2023-03-17T06:50:55.595Z,21.55
2023-03-17T06:53:25.857Z,30.73
2023-03-17T06:55:54.189Z,25.83
2023-03-17T06:58:23.099Z,35.70
2023-03-17T07:00:54.233Z,30.60
2023-03-17T07:03:24.263Z,30.38
2023-03-17T07:05:53.355Z,24.55
2023-03-17T07:08:22.176Z,26.40
2023-03-17T07:10:52.851Z,26.00
2023-03-17T07:13:21.206Z,30.55
2023-03-17T07:15:50.263Z,36.67
2023-03-17T07:18:19.365Z,29.73
2023-03-17T07:20:48.069Z,28.23
2023-03-17T07:23:18.482Z,22.55
2023-03-17T07:25:47.404Z,22.67
2023-03-17T07:28:17.133Z,27.75
2023-03-17T07:30:47.096Z,33.10
2023-03-17T07:33:17.023Z,19.15
2023-03-17T07:35:45.572Z,24.10
2023-03-17T07:38:13.976Z,17.27
2023-03-17T07:40:42.267Z,15.57
2023-03-17T07:43:10.889Z,19.85
2023-03-17T07:45:41.021Z,20.27
2023-03-17T07:48:09.787Z,22.20
2023-03-17T07:50:38.466Z,15.50
2023-03-17T07:53:06.927Z,18.70
2023-03-17T07:58:04.722Z,21.08
2023-03-17T08:00:34.798Z,32.55
2023-03-17T08:03:10.285Z,29.65
2023-03-17T08:05:39.731Z,20.73
2023-03-17T08:08:08.078Z,19.95
2023-03-17T08:13:04.796Z,25.08
2023-03-17T08:20:33.029Z,31.10
2023-03-17T08:23:01.967Z,21.17
2023-03-17T08:25:30.387Z,20.90
2023-03-17T08:30:27.405Z,17.17
2023-03-17T08:32:55.933Z,15.93
2023-03-17T08:40:25.120Z,22.58
2023-03-17T08:42:53.663Z,13.02
2023-03-17T08:45:22.446Z,13.77
2023-03-17T08:47:50.736Z,10.82
2023-03-17T08:50:22.149Z,10.60
2023-03-17T08:52:51.580Z,9.88
2023-03-17T08:55:21.465Z,7.65
2023-03-17T08:57:50.279Z,13.43
2023-03-17T09:00:21.031Z,12.68
2023-03-17T09:02:50.252Z,12.70
2023-03-17T09:05:19.649Z,10.25
2023-03-17T09:07:49.620Z,13.88
2023-03-17T09:10:22.761Z,9.80
2023-03-17T09:12:53.606Z,7.03
2023-03-17T09:15:22.398Z,16.15
2023-03-17T09:17:51.810Z,13.05
2023-03-17T09:20:22.847Z,11.10
2023-03-17T09:22:51.713Z,10.25
2023-03-17T09:25:20.808Z,13.18
2023-03-17T09:27:49.226Z,13.50
2023-03-17T09:30:19.764Z,9.48
2023-03-17T09:32:48.598Z,11.95
2023-03-17T09:35:17.074Z,8.82
2023-03-17T09:42:54.706Z,9.23
2023-03-17T09:48:11.168Z,12.45
2023-03-17T09:50:46.136Z,8.60
2023-03-17T09:53:19.963Z,10.90
2023-03-17T09:55:53.003Z,5.28
2023-03-17T09:58:26.427Z,6.88
2023-03-17T10:00:56.371Z,7.65
2023-03-17T10:03:25.951Z,3.47
2023-03-17T10:05:55.279Z,6.80
2023-03-17T10:08:31.725Z,9.82
2023-03-17T10:11:06.379Z,4.68
2023-03-17T10:13:50.675Z,7.57
2023-03-17T10:16:24.350Z,8.15
2023-03-17T10:18:56.936Z,6.50
2023-03-17T10:21:29.498Z,11.05
2023-03-17T10:23:59.434Z,13.07
2023-03-17T10:26:32.901Z,8.07
2023-03-17T10:29:04.412Z,6.75
2023-03-17T10:31:38.172Z,8.25
2023-03-17T10:34:15.909Z,3.40
2023-03-17T10:36:47.496Z,10.25
2023-03-17T10:39:20.138Z,10.38
2023-03-17T10:41:55.867Z,8.43
2023-03-17T10:44:37.001Z,6.63
2023-03-17T10:47:07.184Z,11.05
2023-03-17T10:49:38.282Z,7.22
2023-03-17T10:52:09.208Z,3.97
2023-03-17T10:54:38.528Z,7.47
2023-03-17T10:57:11.068Z,3.55
2023-03-17T10:59:44.917Z,2.47
2023-03-17T11:02:24.528Z,3.63
2023-03-17T11:04:56.415Z,5.05
2023-03-17T11:07:31.406Z,5.05
2023-03-17T11:10:03.097Z,7.75
2023-03-17T11:12:39.476Z,7.53
2023-03-17T11:15:12.282Z,4.53
2023-03-17T11:17:49.751Z,7.55
2023-03-17T11:20:33.072Z,6.63
2023-03-17T11:23:07.405Z,5.13
2023-03-17T11:25:42.558Z,5.47
2023-03-17T11:28:20.426Z,8.35
2023-03-17T11:30:58.965Z,9.82
2023-03-17T11:33:38.518Z,10.80
2023-03-17T11:36:18.901Z,6.00
2023-03-17T11:38:59.712Z,8.30
2023-03-17T11:41:42.681Z,11.45
2023-03-17T11:44:32.060Z,7.50
2023-03-17T11:47:10.240Z,6.43
2023-03-17T11:49:42.030Z,9.57
2023-03-17T11:52:22.122Z,8.05
2023-03-17T11:55:00.135Z,10.45
2023-03-17T11:57:33.916Z,9.30
2023-03-17T12:00:06.225Z,8.23
2023-03-17T12:02:44.126Z,7.65
2023-03-17T12:05:17.394Z,6.65
2023-03-17T12:07:51.538Z,4.55
2023-03-17T12:10:24.370Z,7.97
2023-03-17T12:12:57.165Z,7.32
2023-03-17T12:15:31.862Z,5.18
2023-03-17T12:18:05.753Z,8.98
2023-03-17T12:20:46.664Z,13.95
2023-03-17T12:23:21.963Z,10.93
2023-03-17T12:25:59.425Z,6.15
2023-03-17T12:28:32.220Z,8.43
2023-03-17T12:31:07.250Z,8.32
2023-03-17T12:33:43.921Z,8.45
2023-03-17T12:36:17.966Z,13.00
2023-03-17T12:38:52.638Z,12.57
2023-03-17T12:41:30.307Z,11.48
2023-03-17T12:44:08.060Z,13.90
2023-03-17T12:47:01.795Z,11.15
2023-03-17T12:50:02.681Z,11.57
2023-03-17T12:52:47.686Z,10.35
2023-03-17T12:55:19.107Z,13.23
2023-03-17T12:57:49.415Z,12.13
2023-03-17T13:00:28.438Z,9.93
2023-03-17T13:03:13.410Z,6.80
2023-03-17T13:05:48.273Z,10.20
2023-03-17T13:08:25.872Z,12.57
2023-03-17T13:11:27.400Z,13.63
2023-03-17T13:14:15.576Z,8.68
2023-03-17T13:16:48.197Z,6.57
2023-03-17T13:19:20.956Z,6.55
2023-03-17T13:21:59.156Z,9.00
2023-03-17T13:24:47.446Z,5.15
2023-03-17T13:27:44.325Z,4.90
2023-03-17T13:30:50.541Z,12.75
2023-03-17T13:33:24.171Z,5.35
2023-03-17T13:36:17.356Z,4.95
2023-03-17T13:39:19.248Z,4.47
2023-03-17T13:42:18.045Z,7.30
2023-03-17T13:45:09.282Z,7.15
2023-03-17T13:47:42.402Z,5.20
2023-03-17T13:50:16.239Z,5.57
2023-03-17T13:52:49.683Z,3.50
2023-03-17T13:55:35.689Z,4.25
2023-03-17T13:58:27.600Z,4.72
2023-03-17T14:01:03.906Z,3.33
2023-03-17T14:03:41.421Z,3.88
2023-03-17T14:06:12.076Z,2.43
2023-03-17T14:08:45.891Z,7.50
2023-03-17T14:11:24.213Z,1.38
2023-03-17T14:14:10.780Z,2.17
2023-03-17T14:16:48.687Z,3.65
2023-03-17T14:19:21.848Z,3.15
2023-03-17T14:21:50.582Z,3.25
2023-03-17T14:24:24.404Z,2.40
2023-03-17T14:26:53.924Z,4.18
2023-03-17T14:29:31.254Z,2.63
2023-03-17T14:32:05.413Z,3.20
2023-03-17T14:34:34.537Z,4.90
2023-03-17T14:37:05.512Z,8.05
2023-03-17T14:39:33.922Z,4.53
2023-03-17T14:42:03.836Z,13.73
2023-03-17T14:44:39.723Z,9.98
2023-03-17T14:47:18.132Z,6.55
2023-03-17T14:49:46.638Z,13.02
2023-03-17T14:54:53.755Z,14.95
2023-03-17T14:57:27.157Z,15.60
2023-03-17T15:00:00.216Z,8.45
2023-03-17T15:02:44.321Z,11.68
2023-03-17T15:05:26.633Z,11.30
2023-03-17T15:07:55.533Z,14.02
2023-03-17T15:10:31.287Z,13.68
2023-03-17T15:13:03.073Z,11.73
2023-03-17T15:15:33.711Z,14.27
2023-03-17T15:18:08.911Z,7.65
2023-03-17T15:20:37.457Z,11.85
2023-03-17T15:25:38.249Z,13.35
2023-03-17T15:28:12.548Z,8.15
2023-03-17T15:30:47.623Z,5.60
2023-03-17T15:33:23.140Z,8.85
2023-03-17T15:35:51.938Z,5.68
2023-03-17T15:38:21.612Z,5.00
2023-03-17T15:40:50.418Z,10.70
2023-03-17T15:43:21.690Z,11.20
2023-03-17T15:45:55.507Z,4.95
2023-03-17T15:48:27.736Z,6.95
2023-03-17T15:50:57.715Z,3.63
2023-03-17T15:53:26.050Z,7.45
2023-03-17T15:55:54.679Z,5.30
2023-03-17T15:58:22.911Z,8.57
2023-03-17T16:00:54.704Z,9.38
2023-03-17T16:03:30.145Z,10.88
2023-03-17T16:05:59.646Z,4.85
2023-03-17T16:08:28.061Z,2.55
2023-03-17T16:13:24.635Z,7.60
2023-03-17T16:15:56.684Z,3.85
2023-03-17T16:18:32.739Z,5.60
2023-03-17T16:21:02.933Z,9.20
2023-03-17T16:23:36.868Z,6.13
2023-03-17T16:26:14.726Z,5.90
2023-03-17T16:28:46.174Z,4.53
2023-03-17T16:31:26.806Z,4.28
2023-03-17T16:33:57.651Z,7.25
2023-03-17T16:36:27.103Z,7.95
2023-03-17T16:38:55.659Z,4.32
2023-03-17T16:43:55.458Z,8.35
2023-03-17T16:46:24.128Z,7.30
2023-03-17T16:48:52.481Z,5.78
2023-03-17T16:51:22.708Z,8.05
2023-03-17T16:53:51.562Z,10.98
2023-03-17T16:56:22.079Z,4.88
2023-03-17T16:58:50.656Z,7.22
2023-03-17T17:03:48.891Z,7.72
2023-03-17T17:06:17.725Z,10.25
2023-03-17T17:08:48.299Z,5.88
2023-03-17T17:11:17.998Z,8.38
2023-03-17T17:13:48.512Z,7.10
2023-03-17T17:16:23.612Z,7.38
2023-03-17T17:18:52.397Z,9.45
2023-03-17T17:21:20.952Z,6.53
2023-03-17T17:26:22.098Z,6.85
2023-03-17T17:28:50.688Z,10.38
2023-03-17T17:31:19.479Z,8.70
2023-03-17T17:33:48.733Z,9.93
2023-03-17T17:36:19.023Z,13.52
2023-03-17T17:38:47.946Z,14.63
2023-03-17T17:41:21.700Z,13.10
2023-03-17T17:43:51.259Z,12.05
2023-03-17T17:46:21.671Z,10.00
2023-03-17T17:48:50.319Z,12.30
2023-03-17T17:56:18.625Z,12.88
2023-03-17T17:58:47.806Z,14.52
2023-03-17T18:01:20.175Z,5.65
2023-03-17T18:03:49.876Z,11.35
2023-03-17T18:06:19.017Z,10.15
2023-03-17T18:08:47.745Z,8.90
2023-03-17T18:11:17.697Z,7.65
2023-03-17T18:13:46.196Z,10.68
2023-03-17T18:16:17.633Z,9.45
2023-03-17T18:18:47.309Z,10.30
2023-03-17T18:21:16.068Z,6.88
2023-03-17T18:23:47.402Z,16.98
2023-03-17T18:26:18.633Z,7.65
2023-03-17T18:28:47.987Z,15.20
2023-03-17T18:31:20.084Z,10.82
2023-03-17T18:33:51.929Z,12.77
2023-03-17T18:36:21.634Z,9.27
2023-03-17T18:38:50.791Z,20.23
2023-03-17T18:41:20.580Z,18.70
2023-03-17T18:43:49.009Z,11.15
2023-03-17T18:46:17.512Z,12.85
2023-03-17T18:51:14.144Z,12.27
2023-03-17T18:53:42.798Z,11.15
2023-03-17T18:56:11.129Z,14.88
2023-03-17T18:58:40.948Z,17.27
2023-03-17T19:01:09.542Z,13.02
2023-03-17T19:03:38.319Z,18.42
2023-03-17T19:06:12.487Z,14.93
2023-03-17T19:08:41.017Z,17.00
2023-03-17T19:13:38.383Z,14.98
2023-03-17T19:16:09.590Z,14.93
2023-03-17T19:18:41.950Z,15.77
2023-03-17T19:21:11.970Z,19.17
2023-03-17T19:23:41.585Z,15.95
2023-03-17T19:26:10.549Z,13.93
2023-03-17T19:28:38.869Z,17.98
2023-03-17T19:31:09.509Z,13.98
2023-03-17T19:33:38.507Z,15.30
2023-03-17T19:36:09.592Z,15.38
2023-03-17T19:38:38.674Z,24.13
2023-03-17T19:41:07.915Z,18.80
2023-03-17T19:43:41.125Z,21.92
2023-03-17T19:46:13.952Z,20.92
2023-03-17T19:48:42.351Z,18.98
2023-03-17T19:51:10.680Z,17.58
2023-03-17T19:53:39.217Z,20.08
2023-03-17T19:56:08.654Z,18.20
2023-03-17T19:58:37.183Z,21.60
2023-03-17T20:03:35.502Z,24.15
2023-03-17T20:06:06.460Z,36.42
2023-03-17T20:08:35.842Z,22.27
2023-03-17T20:11:06.102Z,21.27
2023-03-17T20:13:35.814Z,14.50
2023-03-17T20:16:04.815Z,17.58
2023-03-17T20:18:33.164Z,20.75
2023-03-17T20:21:05.848Z,26.23
2023-03-17T20:23:35.773Z,21.70
2023-03-17T20:26:05.271Z,19.20
2023-03-17T20:28:34.631Z,20.05
2023-03-17T20:31:05.013Z,27.17
2023-03-17T20:33:34.646Z,43.10
2023-03-17T20:36:06.524Z,19.92
2023-03-17T20:38:39.122Z,40.28
2023-03-17T20:41:10.071Z,21.20
2023-03-17T20:43:40.146Z,21.40
2023-03-17T20:46:13.887Z,127.40
2023-03-17T20:48:43.854Z,30.63
2023-03-17T20:51:16.557Z,17.08
2023-03-17T20:53:46.370Z,22.95
2023-03-17T20:56:16.753Z,24.23
2023-03-17T20:58:47.199Z,23.08
2023-03-17T21:01:16.515Z,17.77
2023-03-17T21:03:46.437Z,25.13
2023-03-17T21:06:16.358Z,22.67
2023-03-17T21:08:46.285Z,22.38
2023-03-17T21:11:18.543Z,19.83
2023-03-17T21:13:47.784Z,20.63
2023-03-17T21:16:18.045Z,15.10
2023-03-17T21:18:46.455Z,17.67
2023-03-17T21:21:16.672Z,18.27
2023-03-17T21:23:46.024Z,19.05
2023-03-17T21:26:15.248Z,17.25
2023-03-17T21:28:44.325Z,18.42
2023-03-17T21:31:15.070Z,24.45
2023-03-17T21:33:43.949Z,17.70
2023-03-17T21:36:12.849Z,22.17
2023-03-17T21:38:43.676Z,24.13
2023-03-17T21:41:30.653Z,24.63
2023-03-17T21:43:59.776Z,19.45
2023-03-17T21:46:28.884Z,28.67
2023-03-17T21:48:57.714Z,26.73
2023-03-17T21:51:27.605Z,30.95
2023-03-17T21:53:57.904Z,21.98
2023-03-17T21:56:27.435Z,21.08
2023-03-17T21:58:55.951Z,24.55
2023-03-17T22:03:53.803Z,20.92
2023-03-17T22:06:24.391Z,19.50
2023-03-17T22:08:52.832Z,25.38
2023-03-17T22:11:24.172Z,25.45
2023-03-17T22:13:52.673Z,22.27
2023-03-17T22:16:21.725Z,23.88
2023-03-17T22:18:54.971Z,18.52
2023-03-17T22:21:28.893Z,22.45
2023-03-17T22:23:58.841Z,19.52
2023-03-17T22:26:29.963Z,20.45
2023-03-17T22:29:00.682Z,25.02
2023-03-17T22:31:34.924Z,22.08
2023-03-17T22:34:04.548Z,24.30
2023-03-17T22:36:34.149Z,20.20
2023-03-17T22:39:03.086Z,28.83
2023-03-17T22:41:33.589Z,21.73
2023-03-17T22:44:02.983Z,21.08
2023-03-17T22:46:31.432Z,30.55
2023-03-17T22:51:28.570Z,26.92
2023-03-17T22:53:58.404Z,22.92
2023-03-17T22:56:27.007Z,26.60
2023-03-17T23:01:26.076Z,23.77
2023-03-17T23:03:54.973Z,22.83
2023-03-17T23:06:23.843Z,26.63
2023-03-17T23:08:52.540Z,19.75
2023-03-17T23:11:23.790Z,20.77
2023-03-17T23:13:53.394Z,17.30
2023-03-17T23:16:24.323Z,15.20
2023-03-17T23:18:53.182Z,20.67
2023-03-17T23:21:27.748Z,16.92
2023-03-17T23:23:59.363Z,22.48
2023-03-17T23:26:28.775Z,25.85
2023-03-17T23:28:57.865Z,18.73
2023-03-17T23:31:27.628Z,11.13
2023-03-17T23:33:56.136Z,18.50
2023-03-17T23:38:53.034Z,17.17
2023-03-17T23:41:22.775Z,19.13
2023-03-17T23:43:51.465Z,16.02
2023-03-17T23:46:21.099Z,21.10
2023-03-17T23:48:51.482Z,22.27
2023-03-17T23:51:19.974Z,23.63
2023-03-17T23:53:51.423Z,24.30
2023-03-17T23:56:21.613Z,23.42
2023-03-17T23:58:50.616Z,24.52
